sensor_id;sensor_type;location;lat;lon;timestamp;temperature;humidity
22212;DHT22;11275;52.488;13.462;2023-07-13T00:01:19;22.80;86.10
22212;DHT22;11275;52.488;13.462;2023-07-13T00:03:45;22.70;86.40
22212;DHT22;11275;52.488;13.462;2023-07-13T00:06:11;22.70;86.00
22212;DHT22;11275;52.488;13.462;2023-07-13T00:08:36;22.70;86.10
22212;DHT22;11275;52.488;13.462;2023-07-13T00:11:03;22.70;86.10
22212;DHT22;11275;52.488;13.462;2023-07-13T00:13:29;22.70;86.40
22212;DHT22;11275;52.488;13.462;2023-07-13T00:15:57;22.70;86.60
22212;DHT22;11275;52.488;13.462;2023-07-13T00:18:23;22.70;86.40
22212;DHT22;11275;52.488;13.462;2023-07-13T00:20:48;22.60;86.70
22212;DHT22;11275;52.488;13.462;2023-07-13T00:23:14;22.60;86.80
22212;DHT22;11275;52.488;13.462;2023-07-13T00:25:40;22.60;87.30
22212;DHT22;11275;52.488;13.462;2023-07-13T00:28:06;22.60;86.60
22212;DHT22;11275;52.488;13.462;2023-07-13T00:30:31;22.60;87.00
22212;DHT22;11275;52.488;13.462;2023-07-13T00:32:57;22.50;87.00
22212;DHT22;11275;52.488;13.462;2023-07-13T00:35:23;22.50;87.00
22212;DHT22;11275;52.488;13.462;2023-07-13T00:37:48;22.50;87.20
22212;DHT22;11275;52.488;13.462;2023-07-13T00:40:16;22.50;87.40
22212;DHT22;11275;52.488;13.462;2023-07-13T00:42:41;22.40;87.80
22212;DHT22;11275;52.488;13.462;2023-07-13T00:47:39;22.20;88.30
22212;DHT22;11275;52.488;13.462;2023-07-13T00:50:08;22.10;88.50
22212;DHT22;11275;52.488;13.462;2023-07-13T00:52:37;22.10;88.90
22212;DHT22;11275;52.488;13.462;2023-07-13T00:55:03;22.00;88.30
22212;DHT22;11275;52.488;13.462;2023-07-13T00:57:29;21.90;88.50
22212;DHT22;11275;52.488;13.462;2023-07-13T00:59:58;21.80;88.90
22212;DHT22;11275;52.488;13.462;2023-07-13T01:02:32;21.80;89.40
22212;DHT22;11275;52.488;13.462;2023-07-13T01:04:58;21.80;89.40
22212;DHT22;11275;52.488;13.462;2023-07-13T01:07:24;21.80;89.50
22212;DHT22;11275;52.488;13.462;2023-07-13T01:09:50;21.80;89.30
22212;DHT22;11275;52.488;13.462;2023-07-13T01:12:16;21.80;90.00
22212;DHT22;11275;52.488;13.462;2023-07-13T01:14:41;21.70;89.30
22212;DHT22;11275;52.488;13.462;2023-07-13T01:17:10;21.80;89.20
22212;DHT22;11275;52.488;13.462;2023-07-13T01:19:41;21.80;89.40
22212;DHT22;11275;52.488;13.462;2023-07-13T01:22:18;21.70;89.50
22212;DHT22;11275;52.488;13.462;2023-07-13T01:24:46;21.70;89.70
22212;DHT22;11275;52.488;13.462;2023-07-13T01:27:15;21.60;89.60
22212;DHT22;11275;52.488;13.462;2023-07-13T01:29:42;21.60;89.90
22212;DHT22;11275;52.488;13.462;2023-07-13T01:32:14;21.60;90.50
22212;DHT22;11275;52.488;13.462;2023-07-13T01:34:40;21.60;90.20
22212;DHT22;11275;52.488;13.462;2023-07-13T01:37:11;21.50;90.20
22212;DHT22;11275;52.488;13.462;2023-07-13T01:39:37;21.40;90.40
22212;DHT22;11275;52.488;13.462;2023-07-13T01:42:03;21.40;90.60
22212;DHT22;11275;52.488;13.462;2023-07-13T01:44:29;21.30;90.70
22212;DHT22;11275;52.488;13.462;2023-07-13T01:46:54;21.30;90.80
22212;DHT22;11275;52.488;13.462;2023-07-13T01:49:20;21.20;90.90
22212;DHT22;11275;52.488;13.462;2023-07-13T01:51:46;21.20;91.20
22212;DHT22;11275;52.488;13.462;2023-07-13T01:54:11;21.20;91.20
22212;DHT22;11275;52.488;13.462;2023-07-13T01:56:37;21.10;91.40
22212;DHT22;11275;52.488;13.462;2023-07-13T01:59:02;21.00;91.60
22212;DHT22;11275;52.488;13.462;2023-07-13T02:01:28;20.90;91.60
22212;DHT22;11275;52.488;13.462;2023-07-13T02:03:53;20.90;91.80
22212;DHT22;11275;52.488;13.462;2023-07-13T02:06:19;20.90;91.80
22212;DHT22;11275;52.488;13.462;2023-07-13T02:08:45;21.00;91.70
22212;DHT22;11275;52.488;13.462;2023-07-13T02:11:11;21.00;91.60
22212;DHT22;11275;52.488;13.462;2023-07-13T02:13:36;21.10;91.50
22212;DHT22;11275;52.488;13.462;2023-07-13T02:16:02;21.10;91.50
22212;DHT22;11275;52.488;13.462;2023-07-13T02:18:28;21.10;91.50
22212;DHT22;11275;52.488;13.462;2023-07-13T02:20:53;21.10;91.50
22212;DHT22;11275;52.488;13.462;2023-07-13T02:23:19;21.10;91.80
22212;DHT22;11275;52.488;13.462;2023-07-13T02:25:45;21.10;91.90
22212;DHT22;11275;52.488;13.462;2023-07-13T02:28:11;21.00;91.90
22212;DHT22;11275;52.488;13.462;2023-07-13T02:30:36;20.90;92.10
22212;DHT22;11275;52.488;13.462;2023-07-13T02:33:02;20.80;92.40
22212;DHT22;11275;52.488;13.462;2023-07-13T02:35:28;20.70;92.70
22212;DHT22;11275;52.488;13.462;2023-07-13T02:37:54;20.60;92.80
22212;DHT22;11275;52.488;13.462;2023-07-13T02:40:19;20.60;92.80
22212;DHT22;11275;52.488;13.462;2023-07-13T02:42:45;20.60;92.80
22212;DHT22;11275;52.488;13.462;2023-07-13T02:45:11;20.60;92.80
22212;DHT22;11275;52.488;13.462;2023-07-13T02:47:41;20.70;92.80
22212;DHT22;11275;52.488;13.462;2023-07-13T02:50:07;20.70;92.80
22212;DHT22;11275;52.488;13.462;2023-07-13T02:52:33;20.70;92.80
22212;DHT22;11275;52.488;13.462;2023-07-13T02:54:59;20.70;92.90
22212;DHT22;11275;52.488;13.462;2023-07-13T02:57:24;20.70;92.90
22212;DHT22;11275;52.488;13.462;2023-07-13T02:59:50;20.70;92.80
22212;DHT22;11275;52.488;13.462;2023-07-13T03:02:16;20.70;92.90
22212;DHT22;11275;52.488;13.462;2023-07-13T03:04:42;20.70;92.90
22212;DHT22;11275;52.488;13.462;2023-07-13T03:07:08;20.70;93.00
22212;DHT22;11275;52.488;13.462;2023-07-13T03:09:34;20.70;93.10
22212;DHT22;11275;52.488;13.462;2023-07-13T03:12:00;20.70;93.00
22212;DHT22;11275;52.488;13.462;2023-07-13T03:14:26;20.70;93.00
22212;DHT22;11275;52.488;13.462;2023-07-13T03:16:52;20.70;93.10
22212;DHT22;11275;52.488;13.462;2023-07-13T03:19:18;20.70;93.20
22212;DHT22;11275;52.488;13.462;2023-07-13T03:21:44;20.60;93.40
22212;DHT22;11275;52.488;13.462;2023-07-13T03:24:10;20.60;93.50
22212;DHT22;11275;52.488;13.462;2023-07-13T03:26:38;20.60;93.70
22212;DHT22;11275;52.488;13.462;2023-07-13T03:29:04;20.60;93.80
22212;DHT22;11275;52.488;13.462;2023-07-13T03:31:32;20.50;93.80
22212;DHT22;11275;52.488;13.462;2023-07-13T03:33:58;20.40;93.90
22212;DHT22;11275;52.488;13.462;2023-07-13T03:36:26;20.40;94.10
22212;DHT22;11275;52.488;13.462;2023-07-13T03:38:54;20.50;94.10
22212;DHT22;11275;52.488;13.462;2023-07-13T03:41:21;20.50;94.40
22212;DHT22;11275;52.488;13.462;2023-07-13T03:43:48;20.50;93.90
22212;DHT22;11275;52.488;13.462;2023-07-13T03:46:14;20.50;94.00
22212;DHT22;11275;52.488;13.462;2023-07-13T03:48:41;20.60;93.90
22212;DHT22;11275;52.488;13.462;2023-07-13T03:51:08;20.60;93.80
22212;DHT22;11275;52.488;13.462;2023-07-13T03:53:38;20.70;93.80
22212;DHT22;11275;52.488;13.462;2023-07-13T03:56:05;20.70;93.80
22212;DHT22;11275;52.488;13.462;2023-07-13T03:58:33;20.70;93.70
22212;DHT22;11275;52.488;13.462;2023-07-13T04:00:59;20.80;93.80
22212;DHT22;11275;52.488;13.462;2023-07-13T04:03:26;20.80;93.70
22212;DHT22;11275;52.488;13.462;2023-07-13T04:05:54;20.80;93.80
22212;DHT22;11275;52.488;13.462;2023-07-13T04:08:20;20.80;93.70
22212;DHT22;11275;52.488;13.462;2023-07-13T04:10:46;20.80;93.70
22212;DHT22;11275;52.488;13.462;2023-07-13T04:13:11;20.80;93.70
22212;DHT22;11275;52.488;13.462;2023-07-13T04:15:38;20.90;93.70
22212;DHT22;11275;52.488;13.462;2023-07-13T04:18:04;20.90;93.70
22212;DHT22;11275;52.488;13.462;2023-07-13T04:20:30;20.90;93.70
22212;DHT22;11275;52.488;13.462;2023-07-13T04:22:55;20.90;93.80
22212;DHT22;11275;52.488;13.462;2023-07-13T04:25:21;20.90;93.80
22212;DHT22;11275;52.488;13.462;2023-07-13T04:27:47;20.90;93.60
22212;DHT22;11275;52.488;13.462;2023-07-13T04:30:13;20.90;93.60
22212;DHT22;11275;52.488;13.462;2023-07-13T04:32:38;20.90;93.50
22212;DHT22;11275;52.488;13.462;2023-07-13T04:35:04;20.90;93.60
22212;DHT22;11275;52.488;13.462;2023-07-13T04:37:30;20.90;93.50
22212;DHT22;11275;52.488;13.462;2023-07-13T04:39:56;20.90;93.40
22212;DHT22;11275;52.488;13.462;2023-07-13T04:42:22;20.90;93.40
22212;DHT22;11275;52.488;13.462;2023-07-13T04:44:51;21.00;93.30
22212;DHT22;11275;52.488;13.462;2023-07-13T04:47:20;21.00;93.10
22212;DHT22;11275;52.488;13.462;2023-07-13T04:49:45;21.10;93.10
22212;DHT22;11275;52.488;13.462;2023-07-13T04:52:11;21.00;93.10
22212;DHT22;11275;52.488;13.462;2023-07-13T04:54:37;21.00;93.40
22212;DHT22;11275;52.488;13.462;2023-07-13T04:57:04;21.00;93.00
22212;DHT22;11275;52.488;13.462;2023-07-13T04:59:33;21.00;93.10
22212;DHT22;11275;52.488;13.462;2023-07-13T05:01:59;21.00;93.10
22212;DHT22;11275;52.488;13.462;2023-07-13T05:04:24;21.00;93.20
22212;DHT22;11275;52.488;13.462;2023-07-13T05:06:50;21.10;93.10
22212;DHT22;11275;52.488;13.462;2023-07-13T05:09:16;21.10;93.10
22212;DHT22;11275;52.488;13.462;2023-07-13T05:11:43;21.10;93.10
22212;DHT22;11275;52.488;13.462;2023-07-13T05:14:09;21.20;93.20
22212;DHT22;11275;52.488;13.462;2023-07-13T05:16:35;21.20;93.10
22212;DHT22;11275;52.488;13.462;2023-07-13T05:19:01;21.20;93.10
22212;DHT22;11275;52.488;13.462;2023-07-13T05:21:27;21.20;92.90
22212;DHT22;11275;52.488;13.462;2023-07-13T05:23:52;21.20;93.00
22212;DHT22;11275;52.488;13.462;2023-07-13T05:26:18;21.20;93.00
22212;DHT22;11275;52.488;13.462;2023-07-13T05:28:44;21.20;93.00
22212;DHT22;11275;52.488;13.462;2023-07-13T05:31:10;21.20;93.00
22212;DHT22;11275;52.488;13.462;2023-07-13T05:33:36;21.20;93.00
22212;DHT22;11275;52.488;13.462;2023-07-13T05:36:01;21.30;93.50
22212;DHT22;11275;52.488;13.462;2023-07-13T05:38:28;21.30;93.00
22212;DHT22;11275;52.488;13.462;2023-07-13T05:40:54;21.30;93.00
22212;DHT22;11275;52.488;13.462;2023-07-13T05:43:21;21.40;93.10
22212;DHT22;11275;52.488;13.462;2023-07-13T05:45:47;21.30;93.00
22212;DHT22;11275;52.488;13.462;2023-07-13T05:48:13;21.40;93.00
22212;DHT22;11275;52.488;13.462;2023-07-13T05:50:39;21.40;93.00
22212;DHT22;11275;52.488;13.462;2023-07-13T05:53:04;21.40;93.00
22212;DHT22;11275;52.488;13.462;2023-07-13T05:55:30;21.50;93.00
22212;DHT22;11275;52.488;13.462;2023-07-13T05:57:56;21.50;93.00
22212;DHT22;11275;52.488;13.462;2023-07-13T06:00:23;21.50;93.00
22212;DHT22;11275;52.488;13.462;2023-07-13T06:02:49;21.50;93.00
22212;DHT22;11275;52.488;13.462;2023-07-13T06:05:15;21.60;92.90
22212;DHT22;11275;52.488;13.462;2023-07-13T06:07:42;21.70;93.00
22212;DHT22;11275;52.488;13.462;2023-07-13T06:10:08;21.60;93.00
22212;DHT22;11275;52.488;13.462;2023-07-13T06:12:34;21.60;92.90
22212;DHT22;11275;52.488;13.462;2023-07-13T06:15:00;21.70;93.00
22212;DHT22;11275;52.488;13.462;2023-07-13T06:17:25;21.70;92.90
22212;DHT22;11275;52.488;13.462;2023-07-13T06:19:51;21.70;92.90
22212;DHT22;11275;52.488;13.462;2023-07-13T06:22:16;21.70;92.80
22212;DHT22;11275;52.488;13.462;2023-07-13T06:24:42;21.80;92.80
22212;DHT22;11275;52.488;13.462;2023-07-13T06:27:08;21.80;92.80
22212;DHT22;11275;52.488;13.462;2023-07-13T06:29:33;21.80;92.80
22212;DHT22;11275;52.488;13.462;2023-07-13T06:31:59;21.80;92.70
22212;DHT22;11275;52.488;13.462;2023-07-13T06:34:25;21.70;92.60
22212;DHT22;11275;52.488;13.462;2023-07-13T06:36:50;21.70;92.90
22212;DHT22;11275;52.488;13.462;2023-07-13T06:39:16;21.80;92.80
22212;DHT22;11275;52.488;13.462;2023-07-13T06:41:41;21.90;92.70
22212;DHT22;11275;52.488;13.462;2023-07-13T06:44:07;21.90;92.60
22212;DHT22;11275;52.488;13.462;2023-07-13T06:46:34;22.00;92.30
22212;DHT22;11275;52.488;13.462;2023-07-13T06:48:59;22.00;92.20
22212;DHT22;11275;52.488;13.462;2023-07-13T06:51:27;22.00;92.00
22212;DHT22;11275;52.488;13.462;2023-07-13T06:53:52;22.10;92.00
22212;DHT22;11275;52.488;13.462;2023-07-13T06:56:18;22.10;92.10
22212;DHT22;11275;52.488;13.462;2023-07-13T06:58:43;22.10;92.10
22212;DHT22;11275;52.488;13.462;2023-07-13T07:01:09;22.10;92.10
22212;DHT22;11275;52.488;13.462;2023-07-13T07:03:35;22.20;92.10
22212;DHT22;11275;52.488;13.462;2023-07-13T07:06:16;22.20;91.70
22212;DHT22;11275;52.488;13.462;2023-07-13T07:08:45;22.30;91.50
22212;DHT22;11275;52.488;13.462;2023-07-13T07:11:18;22.30;91.40
22212;DHT22;11275;52.488;13.462;2023-07-13T07:13:44;22.30;91.40
22212;DHT22;11275;52.488;13.462;2023-07-13T07:16:09;22.30;91.40
22212;DHT22;11275;52.488;13.462;2023-07-13T07:18:36;22.40;91.10
22212;DHT22;11275;52.488;13.462;2023-07-13T07:21:01;22.40;90.60
22212;DHT22;11275;52.488;13.462;2023-07-13T07:23:27;22.50;90.70
22212;DHT22;11275;52.488;13.462;2023-07-13T07:25:53;22.50;90.70
22212;DHT22;11275;52.488;13.462;2023-07-13T07:28:19;22.50;90.70
22212;DHT22;11275;52.488;13.462;2023-07-13T07:30:45;22.60;90.80
22212;DHT22;11275;52.488;13.462;2023-07-13T07:33:11;22.60;90.60
22212;DHT22;11275;52.488;13.462;2023-07-13T07:35:37;22.70;90.20
22212;DHT22;11275;52.488;13.462;2023-07-13T07:38:03;22.90;90.10
22212;DHT22;11275;52.488;13.462;2023-07-13T07:40:28;23.10;88.80
22212;DHT22;11275;52.488;13.462;2023-07-13T07:42:54;23.30;88.80
22212;DHT22;11275;52.488;13.462;2023-07-13T07:45:20;23.60;87.90
22212;DHT22;11275;52.488;13.462;2023-07-13T07:47:46;23.80;87.40
22212;DHT22;11275;52.488;13.462;2023-07-13T07:50:12;23.90;86.70
22212;DHT22;11275;52.488;13.462;2023-07-13T07:52:38;24.10;85.40
22212;DHT22;11275;52.488;13.462;2023-07-13T07:55:05;24.10;85.50
22212;DHT22;11275;52.488;13.462;2023-07-13T07:57:31;24.10;85.20
22212;DHT22;11275;52.488;13.462;2023-07-13T07:59:57;24.30;85.20
22212;DHT22;11275;52.488;13.462;2023-07-13T08:02:23;24.40;85.20
22212;DHT22;11275;52.488;13.462;2023-07-13T08:04:49;24.40;84.40
22212;DHT22;11275;52.488;13.462;2023-07-13T08:07:15;24.40;84.20
22212;DHT22;11275;52.488;13.462;2023-07-13T08:09:40;24.40;84.50
22212;DHT22;11275;52.488;13.462;2023-07-13T08:12:06;24.30;83.60
22212;DHT22;11275;52.488;13.462;2023-07-13T08:14:32;24.30;83.90
22212;DHT22;11275;52.488;13.462;2023-07-13T08:16:58;24.30;84.30
22212;DHT22;11275;52.488;13.462;2023-07-13T08:19:23;24.40;84.80
22212;DHT22;11275;52.488;13.462;2023-07-13T08:21:49;24.40;84.90
22212;DHT22;11275;52.488;13.462;2023-07-13T08:24:15;24.50;84.80
22212;DHT22;11275;52.488;13.462;2023-07-13T08:26:44;24.60;84.00
22212;DHT22;11275;52.488;13.462;2023-07-13T08:29:10;24.70;84.60
22212;DHT22;11275;52.488;13.462;2023-07-13T08:31:36;24.70;84.30
22212;DHT22;11275;52.488;13.462;2023-07-13T08:34:01;24.70;84.00
22212;DHT22;11275;52.488;13.462;2023-07-13T08:36:28;24.70;83.80
22212;DHT22;11275;52.488;13.462;2023-07-13T08:38:54;24.80;83.10
22212;DHT22;11275;52.488;13.462;2023-07-13T08:41:20;24.90;82.10
22212;DHT22;11275;52.488;13.462;2023-07-13T08:43:49;24.90;82.20
22212;DHT22;11275;52.488;13.462;2023-07-13T08:46:24;25.00;80.90
22212;DHT22;11275;52.488;13.462;2023-07-13T08:48:56;25.00;79.40
22212;DHT22;11275;52.488;13.462;2023-07-13T08:52:25;24.90;79.60
22212;DHT22;11275;52.488;13.462;2023-07-13T08:54:28;24.90;79.80
22212;DHT22;11275;52.488;13.462;2023-07-13T08:56:56;24.80;80.10
22212;DHT22;11275;52.488;13.462;2023-07-13T08:59:25;24.80;80.90
22212;DHT22;11275;52.488;13.462;2023-07-13T09:04:41;24.70;81.60
22212;DHT22;11275;52.488;13.462;2023-07-13T09:15:03;24.30;82.80
22212;DHT22;11275;52.488;13.462;2023-07-13T09:17:43;24.30;82.10
22212;DHT22;11275;52.488;13.462;2023-07-13T09:22:59;24.40;79.60
22212;DHT22;11275;52.488;13.462;2023-07-13T09:25:33;24.30;81.00
22212;DHT22;11275;52.488;13.462;2023-07-13T09:28:20;24.20;80.60
22212;DHT22;11275;52.488;13.462;2023-07-13T09:30:58;24.20;80.20
22212;DHT22;11275;52.488;13.462;2023-07-13T09:33:26;24.10;79.80
22212;DHT22;11275;52.488;13.462;2023-07-13T09:35:55;24.20;80.10
22212;DHT22;11275;52.488;13.462;2023-07-13T09:38:24;24.20;79.20
22212;DHT22;11275;52.488;13.462;2023-07-13T09:43:36;24.30;79.00
22212;DHT22;11275;52.488;13.462;2023-07-13T09:46:02;24.20;79.40
22212;DHT22;11275;52.488;13.462;2023-07-13T09:48:34;24.20;80.10
22212;DHT22;11275;52.488;13.462;2023-07-13T09:51:12;24.20;79.30
22212;DHT22;11275;52.488;13.462;2023-07-13T09:53:41;24.20;78.30
22212;DHT22;11275;52.488;13.462;2023-07-13T09:56:19;24.30;77.50
22212;DHT22;11275;52.488;13.462;2023-07-13T09:58:45;24.40;77.20
22212;DHT22;11275;52.488;13.462;2023-07-13T10:01:11;24.50;78.00
22212;DHT22;11275;52.488;13.462;2023-07-13T10:03:37;24.60;77.30
22212;DHT22;11275;52.488;13.462;2023-07-13T10:08:37;24.60;76.50
22212;DHT22;11275;52.488;13.462;2023-07-13T10:11:11;24.60;75.90
22212;DHT22;11275;52.488;13.462;2023-07-13T10:13:42;24.70;75.90
22212;DHT22;11275;52.488;13.462;2023-07-13T10:16:09;24.70;75.50
22212;DHT22;11275;52.488;13.462;2023-07-13T10:18:46;24.70;75.10
22212;DHT22;11275;52.488;13.462;2023-07-13T10:21:36;24.70;74.80
22212;DHT22;11275;52.488;13.462;2023-07-13T10:24:23;24.70;75.10
22212;DHT22;11275;52.488;13.462;2023-07-13T10:27:16;24.70;75.60
22212;DHT22;11275;52.488;13.462;2023-07-13T10:29:54;24.80;75.20
22212;DHT22;11275;52.488;13.462;2023-07-13T10:32:23;24.90;75.60
22212;DHT22;11275;52.488;13.462;2023-07-13T10:34:50;25.00;75.00
22212;DHT22;11275;52.488;13.462;2023-07-13T10:37:23;25.10;74.90
22212;DHT22;11275;52.488;13.462;2023-07-13T10:39:52;25.30;74.00
22212;DHT22;11275;52.488;13.462;2023-07-13T10:42:40;25.30;74.30
22212;DHT22;11275;52.488;13.462;2023-07-13T10:45:15;25.20;74.00
22212;DHT22;11275;52.488;13.462;2023-07-13T10:47:43;25.10;73.60
22212;DHT22;11275;52.488;13.462;2023-07-13T10:50:17;25.00;73.10
22212;DHT22;11275;52.488;13.462;2023-07-13T10:52:47;25.00;73.60
22212;DHT22;11275;52.488;13.462;2023-07-13T10:58:03;24.90;73.30
22212;DHT22;11275;52.488;13.462;2023-07-13T11:00:43;25.00;71.90
22212;DHT22;11275;52.488;13.462;2023-07-13T11:03:14;25.00;71.80
22212;DHT22;11275;52.488;13.462;2023-07-13T11:05:40;25.00;70.80
22212;DHT22;11275;52.488;13.462;2023-07-13T11:08:19;25.00;71.00
22212;DHT22;11275;52.488;13.462;2023-07-13T11:10:49;25.10;70.90
22212;DHT22;11275;52.488;13.462;2023-07-13T11:18:45;25.20;70.90
22212;DHT22;11275;52.488;13.462;2023-07-13T11:21:15;25.20;70.90
22212;DHT22;11275;52.488;13.462;2023-07-13T11:23:43;25.20;71.00
22212;DHT22;11275;52.488;13.462;2023-07-13T11:29:34;25.20;66.60
22212;DHT22;11275;52.488;13.462;2023-07-13T11:32:30;25.30;66.10
22212;DHT22;11275;52.488;13.462;2023-07-13T11:34:56;25.30;66.50
22212;DHT22;11275;52.488;13.462;2023-07-13T11:37:23;25.40;66.80
22212;DHT22;11275;52.488;13.462;2023-07-13T11:39:51;25.40;67.90
22212;DHT22;11275;52.488;13.462;2023-07-13T11:42:18;25.40;67.70
22212;DHT22;11275;52.488;13.462;2023-07-13T11:44:48;25.30;68.20
22212;DHT22;11275;52.488;13.462;2023-07-13T11:47:18;25.30;67.20
22212;DHT22;11275;52.488;13.462;2023-07-13T11:49:49;25.40;67.10
22212;DHT22;11275;52.488;13.462;2023-07-13T11:52:26;25.40;67.70
22212;DHT22;11275;52.488;13.462;2023-07-13T11:54:55;25.50;68.20
22212;DHT22;11275;52.488;13.462;2023-07-13T11:57:30;25.60;69.30
22212;DHT22;11275;52.488;13.462;2023-07-13T11:59:58;25.60;68.80
22212;DHT22;11275;52.488;13.462;2023-07-13T12:02:37;25.60;68.10
22212;DHT22;11275;52.488;13.462;2023-07-13T12:05:05;25.70;68.50
22212;DHT22;11275;52.488;13.462;2023-07-13T12:07:32;25.80;68.90
22212;DHT22;11275;52.488;13.462;2023-07-13T12:12:33;25.90;66.50
22212;DHT22;11275;52.488;13.462;2023-07-13T12:14:59;25.90;67.10
22212;DHT22;11275;52.488;13.462;2023-07-13T12:17:25;25.90;66.90
22212;DHT22;11275;52.488;13.462;2023-07-13T12:19:53;25.90;67.20
22212;DHT22;11275;52.488;13.462;2023-07-13T12:22:19;25.90;67.20
22212;DHT22;11275;52.488;13.462;2023-07-13T12:24:46;26.00;67.70
22212;DHT22;11275;52.488;13.462;2023-07-13T12:27:24;26.10;67.30
22212;DHT22;11275;52.488;13.462;2023-07-13T12:30:03;26.20;66.80
22212;DHT22;11275;52.488;13.462;2023-07-13T12:32:30;26.20;66.70
22212;DHT22;11275;52.488;13.462;2023-07-13T12:35:26;26.20;67.30
22212;DHT22;11275;52.488;13.462;2023-07-13T12:37:57;26.20;67.30
22212;DHT22;11275;52.488;13.462;2023-07-13T12:40:32;26.10;66.70
22212;DHT22;11275;52.488;13.462;2023-07-13T12:42:58;26.20;66.50
22212;DHT22;11275;52.488;13.462;2023-07-13T12:45:26;26.20;65.80
22212;DHT22;11275;52.488;13.462;2023-07-13T12:47:59;26.10;66.40
22212;DHT22;11275;52.488;13.462;2023-07-13T12:50:34;26.20;66.70
22212;DHT22;11275;52.488;13.462;2023-07-13T12:53:02;26.40;66.90
22212;DHT22;11275;52.488;13.462;2023-07-13T12:55:46;26.40;65.90
22212;DHT22;11275;52.488;13.462;2023-07-13T12:58:39;26.50;66.40
22212;DHT22;11275;52.488;13.462;2023-07-13T13:01:07;26.50;65.80
22212;DHT22;11275;52.488;13.462;2023-07-13T13:03:40;26.40;65.40
22212;DHT22;11275;52.488;13.462;2023-07-13T13:08:46;26.70;65.00
22212;DHT22;11275;52.488;13.462;2023-07-13T13:11:17;26.60;64.40
22212;DHT22;11275;52.488;13.462;2023-07-13T13:13:44;26.50;65.20
22212;DHT22;11275;52.488;13.462;2023-07-13T13:16:14;26.50;64.20
22212;DHT22;11275;52.488;13.462;2023-07-13T13:18:41;26.50;62.30
22212;DHT22;11275;52.488;13.462;2023-07-13T13:21:09;26.40;63.60
22212;DHT22;11275;52.488;13.462;2023-07-13T13:23:35;26.40;64.60
22212;DHT22;11275;52.488;13.462;2023-07-13T13:26:01;26.50;65.20
22212;DHT22;11275;52.488;13.462;2023-07-13T13:28:27;26.50;64.30
22212;DHT22;11275;52.488;13.462;2023-07-13T13:30:54;26.50;64.70
22212;DHT22;11275;52.488;13.462;2023-07-13T13:33:21;26.50;64.90
22212;DHT22;11275;52.488;13.462;2023-07-13T13:35:47;26.50;64.70
22212;DHT22;11275;52.488;13.462;2023-07-13T13:38:20;26.60;64.90
22212;DHT22;11275;52.488;13.462;2023-07-13T13:40:47;26.70;64.60
22212;DHT22;11275;52.488;13.462;2023-07-13T13:43:18;26.80;64.60
22212;DHT22;11275;52.488;13.462;2023-07-13T13:45:45;26.90;64.20
22212;DHT22;11275;52.488;13.462;2023-07-13T13:48:19;27.00;64.90
22212;DHT22;11275;52.488;13.462;2023-07-13T13:50:47;27.10;63.80
22212;DHT22;11275;52.488;13.462;2023-07-13T13:53:14;27.00;63.20
22212;DHT22;11275;52.488;13.462;2023-07-13T13:55:41;27.00;63.10
22212;DHT22;11275;52.488;13.462;2023-07-13T13:58:08;27.00;63.00
22212;DHT22;11275;52.488;13.462;2023-07-13T14:00:35;27.10;63.70
22212;DHT22;11275;52.488;13.462;2023-07-13T14:03:00;27.30;62.80
22212;DHT22;11275;52.488;13.462;2023-07-13T14:05:27;27.20;63.50
22212;DHT22;11275;52.488;13.462;2023-07-13T14:07:54;27.20;64.40
22212;DHT22;11275;52.488;13.462;2023-07-13T14:10:20;27.20;61.90
22212;DHT22;11275;52.488;13.462;2023-07-13T14:12:51;27.20;62.70
22212;DHT22;11275;52.488;13.462;2023-07-13T14:15:21;27.20;63.10
22212;DHT22;11275;52.488;13.462;2023-07-13T14:17:47;27.40;63.00
22212;DHT22;11275;52.488;13.462;2023-07-13T14:20:17;27.50;62.50
22212;DHT22;11275;52.488;13.462;2023-07-13T14:22:43;27.50;62.80
22212;DHT22;11275;52.488;13.462;2023-07-13T14:25:13;27.50;62.20
22212;DHT22;11275;52.488;13.462;2023-07-13T14:27:41;27.50;62.30
22212;DHT22;11275;52.488;13.462;2023-07-13T14:30:18;27.40;61.30
22212;DHT22;11275;52.488;13.462;2023-07-13T14:32:44;27.40;61.20
22212;DHT22;11275;52.488;13.462;2023-07-13T14:35:12;27.40;61.50
22212;DHT22;11275;52.488;13.462;2023-07-13T14:37:41;27.40;62.20
22212;DHT22;11275;52.488;13.462;2023-07-13T14:40:17;27.40;61.50
22212;DHT22;11275;52.488;13.462;2023-07-13T14:42:44;27.40;61.90
22212;DHT22;11275;52.488;13.462;2023-07-13T14:45:19;27.60;62.70
22212;DHT22;11275;52.488;13.462;2023-07-13T14:47:49;27.80;62.30
22212;DHT22;11275;52.488;13.462;2023-07-13T14:50:17;28.00;61.40
22212;DHT22;11275;52.488;13.462;2023-07-13T14:52:44;28.10;61.50
22212;DHT22;11275;52.488;13.462;2023-07-13T14:55:17;28.10;61.70
22212;DHT22;11275;52.488;13.462;2023-07-13T14:57:43;28.00;62.20
22212;DHT22;11275;52.488;13.462;2023-07-13T15:00:17;28.10;62.20
22212;DHT22;11275;52.488;13.462;2023-07-13T15:02:46;28.20;60.20
22212;DHT22;11275;52.488;13.462;2023-07-13T15:05:17;28.20;59.90
22212;DHT22;11275;52.488;13.462;2023-07-13T15:07:44;28.30;60.70
22212;DHT22;11275;52.488;13.462;2023-07-13T15:10:18;28.30;60.60
22212;DHT22;11275;52.488;13.462;2023-07-13T15:12:44;28.40;58.70
22212;DHT22;11275;52.488;13.462;2023-07-13T15:15:10;28.30;59.20
22212;DHT22;11275;52.488;13.462;2023-07-13T15:17:41;28.30;59.60
22212;DHT22;11275;52.488;13.462;2023-07-13T15:20:28;28.30;58.40
22212;DHT22;11275;52.488;13.462;2023-07-13T15:22:54;28.40;58.10
22212;DHT22;11275;52.488;13.462;2023-07-13T15:25:26;28.50;58.10
22212;DHT22;11275;52.488;13.462;2023-07-13T15:27:53;28.50;58.30
22212;DHT22;11275;52.488;13.462;2023-07-13T15:30:19;28.60;58.30
22212;DHT22;11275;52.488;13.462;2023-07-13T15:32:45;28.70;58.30
22212;DHT22;11275;52.488;13.462;2023-07-13T15:35:20;28.70;57.80
22212;DHT22;11275;52.488;13.462;2023-07-13T15:37:46;28.70;57.60
22212;DHT22;11275;52.488;13.462;2023-07-13T15:40:13;28.80;58.20
22212;DHT22;11275;52.488;13.462;2023-07-13T15:42:40;28.90;57.70
22212;DHT22;11275;52.488;13.462;2023-07-13T15:45:18;28.90;57.30
22212;DHT22;11275;52.488;13.462;2023-07-13T15:47:48;29.00;57.30
22212;DHT22;11275;52.488;13.462;2023-07-13T15:50:14;29.00;57.80
22212;DHT22;11275;52.488;13.462;2023-07-13T15:52:41;29.00;56.90
22212;DHT22;11275;52.488;13.462;2023-07-13T15:55:11;29.10;56.60
22212;DHT22;11275;52.488;13.462;2023-07-13T15:57:37;29.20;57.40
22212;DHT22;11275;52.488;13.462;2023-07-13T16:00:11;29.10;57.40